Bison, KS (67520)

10:26 AM CDT on September 01, 2014 (GMT -0500)
Great Bend Municipal | Change Station
CLOSE
Current Station
Airport
Location: Great Bend,
Elevation: 1886 ft
Nearby Weather Stations

Elev 1886 ft 38.34 °N, 98.86 °W | Updated 11 minutes ago

Mostly Cloudy
Mostly Cloudy
70 °F
Feels Like 70 °F
N
6
Wind Variable Wind from North

Today
High -- | Low -- °F
--% Chance of Precip.
Yesterday
High -- | Low -- °F
Precip. -- in
7:06 AM 8:06 PM
Waxing Crescent, 41% visible
Pressure 29.93 in
Visibility 10.0 miles
Clouds Scattered Clouds 2700 ft
Mostly Cloudy 4400 ft
Dew Point 63 °F
Humidity 78%
Rainfall 0.43 in
Snow Depth Not available.
UV 2 out of 12
Pollen 10.80 out of 12
Air Quality Not available.
Flu Activity Not available.
METAR KGBD 011515Z AUTO 36005KT 10SM SCT027 BKN044 21/17 A2993 RMK AO1

More Conditions Fewer Conditions

Pressure 29.93 in
Visibility 10.0 miles
Clouds Scattered Clouds 2700 ft
Mostly Cloudy 4400 ft
Dew Point 63 °F
Humidity 78%
Rainfall 0.43 in
Snow Depth Not available.
UV 2 out of 12
Pollen 10.80 out of 12
Air Quality Not available.
Flu Activity Not available.
METAR KGBD 011515Z AUTO 36005KT 10SM SCT027 BKN044 21/17 A2993 RMK AO1

More Conditions Fewer Conditions

10-Day Weather Forecast

Almanac

Astronomy

Sep. 01, 2014 Rise Set
Actual Time 7:06 AM CDT 8:06 PM CDT
Civil Twilight 6:38 AM CDT 8:33 PM CDT
Nautical Twilight 6:06 AM CDT 9:05 PM CDT
Astronomical Twilight 5:33 AM CDT 9:39 PM CDT
Moon 1:48 PM CDT No Moon Set
Length of Visible Light 13h 54m
Length of Day
13h 00m
Tomorrow will be 2m 23s shorter.
Waxing Crescent, 41% of the Moon is Illuminated
Today
Waxing Crescent
Sep 2
First Quarter
Sep 8
Full
Sep 15
Last Quarter
Sep 24
New

Today's Extremes

State Highs State Lows

Community

WunderPhotos

Upload Photos

1,749,273 photos uploaded!

Nearby

Snow Depth

Station Depth Elevation
No new snow has been reported.

Earthquake Activity

City Distance Mag. Time & Date
Enid, Oklahoma 148 miles 3.4 11:57 AM CDT
2014-08-31
Enid, Oklahoma 148 miles 3.7 2:20 AM CDT
2014-08-31
Minimum magnitude displayed is 2.5.

Coastal Water Temperatures

Place Temperature
No Stations Reporting

Nearby Weather Stations